Time;durP1;ratioP1;P1;durP2;ratioP2;P2;SDS_P1;SDS_P2;PMS_P1;PMS_P2;Temp;Humidity;BMP_temperature;BMP_pressure;BME280_temperature;BME280_humidity;BME280_pressure;Samples;Min_cycle;Max_cycle;Signal;HPM_P1;HPM_P2
2024/01/17 00:01:55;;;;;;;68.20;22.10;;;;;;;2.13;62.74;100601.95;108177;1287;21997;-65
2024/01/17 00:04:21;;;;;;;78.80;23.90;;;;;;;2.10;62.63;100606.02;108236;1287;21992;-64
2024/01/17 00:06:47;;;;;;;73.20;23.40;;;;;;;2.06;62.75;100606.28;107373;1286;1006398;-63
2024/01/17 00:09:12;;;;;;;68.40;24.20;;;;;;;2.03;62.54;100603.24;108102;1287;21988;-60
2024/01/17 00:11:38;;;;;;;57.40;18.30;;;;;;;1.99;62.36;100601.25;108106;1277;21989;-60
2024/01/17 00:14:03;;;;;;;99.70;29.90;;;;;;;1.96;62.24;100606.00;108169;1287;22046;-60
2024/01/17 00:16:29;;;;;;;64.10;22.90;;;;;;;1.93;62.31;100610.09;108091;1280;21989;-64
2024/01/17 00:18:55;;;;;;;21.20;7.60;;;;;;;1.90;62.35;100616.94;107392;1287;1002745;-64
2024/01/17 00:21:21;;;;;;;23.20;8.70;;;;;;;1.87;62.18;100622.73;108222;1280;22001;-63
2024/01/17 00:23:46;;;;;;;30.00;10.90;;;;;;;1.85;62.09;100623.19;108228;1281;22083;-62
2024/01/17 00:26:12;;;;;;;20.40;7.90;;;;;;;1.77;62.29;100620.56;108087;1287;21990;-63
2024/01/17 00:28:38;;;;;;;31.20;11.20;;;;;;;1.70;62.99;100618.48;108252;1286;21992;-63
2024/01/17 00:31:03;;;;;;;61.80;18.40;;;;;;;1.81;62.86;100618.92;108226;1287;21989;-63
2024/01/17 00:33:29;;;;;;;102.30;31.70;;;;;;;1.83;62.76;100620.91;108055;1286;21990;-60
2024/01/17 00:35:54;;;;;;;97.90;28.40;;;;;;;1.87;62.79;100623.25;108081;1284;22007;-60
2024/01/17 00:38:20;;;;;;;107.10;33.40;;;;;;;1.91;62.94;100627.52;108060;1286;22000;-63
2024/01/17 00:40:46;;;;;;;48.40;15.40;;;;;;;1.93;62.90;100628.10;108058;1280;22001;-61
2024/01/17 00:43:12;;;;;;;17.70;7.20;;;;;;;1.97;62.63;100628.73;108164;1281;21995;-60
2024/01/17 00:45:37;;;;;;;21.20;7.90;;;;;;;2.00;62.42;100633.11;108152;1287;22010;-62
2024/01/17 00:48:03;;;;;;;32.10;9.60;;;;;;;2.00;62.31;100636.59;108133;1280;22006;-63
2024/01/17 00:50:30;;;;;;;51.40;12.70;;;;;;;2.00;62.06;100641.77;108098;1287;21999;-63
2024/01/17 00:52:55;;;;;;;25.70;8.90;;;;;;;1.94;62.08;100641.95;108035;1280;21995;-60
2024/01/17 00:55:21;;;;;;;19.60;6.70;;;;;;;1.92;62.23;100642.95;108085;1287;22028;-62
2024/01/17 00:57:47;;;;;;;34.90;10.40;;;;;;;1.93;62.32;100648.69;108080;1286;21997;-63
2024/01/17 01:00:13;;;;;;;43.10;10.60;;;;;;;1.96;62.33;100653.60;108144;1280;21982;-60
2024/01/17 01:02:39;;;;;;;48.10;15.60;;;;;;;1.98;62.28;100653.48;107420;1287;1003115;-63
2024/01/17 01:05:04;;;;;;;68.60;20.50;;;;;;;2.00;62.38;100650.95;107311;1286;1002557;-63
2024/01/17 01:07:30;;;;;;;51.30;11.60;;;;;;;2.01;62.46;100651.13;108096;1281;21992;-63
2024/01/17 01:09:56;;;;;;;17.10;7.60;;;;;;;2.03;62.30;100650.67;107375;1287;1002606;-63
2024/01/17 01:12:21;;;;;;;12.00;5.20;;;;;;;2.04;62.19;100650.38;107371;1277;1003032;-63
2024/01/17 01:14:47;;;;;;;12.10;7.10;;;;;;;2.07;62.26;100646.64;107251;1278;1003411;-63
2024/01/17 01:17:12;;;;;;;9.60;5.50;;;;;;;2.08;62.26;100651.17;108140;1287;21989;-61
2024/01/17 01:19:38;;;;;;;9.60;4.60;;;;;;;2.07;62.14;100645.08;108285;1276;21999;-61
2024/01/17 01:22:04;;;;;;;7.50;4.00;;;;;;;2.05;61.97;100647.28;108130;1281;21987;-62
2024/01/17 01:24:29;;;;;;;7.10;3.90;;;;;;;2.04;61.97;100650.53;108091;1280;21996;-60
2024/01/17 01:26:55;;;;;;;7.10;4.20;;;;;;;2.03;62.01;100650.51;108143;1287;22009;-62
2024/01/17 01:29:23;;;;;;;6.90;3.60;;;;;;;2.03;62.17;100650.00;108091;1280;21996;-60
2024/01/17 01:31:49;;;;;;;7.40;4.40;;;;;;;2.04;62.26;100652.95;108135;1286;21994;-63
2024/01/17 01:34:14;;;;;;;6.50;4.10;;;;;;;2.02;61.87;100656.02;107355;1286;1002962;-62
2024/01/17 01:36:40;;;;;;;7.40;3.70;;;;;;;2.00;61.88;100658.04;108040;1275;21990;-63
2024/01/17 01:39:06;;;;;;;7.70;4.20;;;;;;;2.00;62.12;100656.83;107305;1286;1002589;-61
2024/01/17 01:41:31;;;;;;;8.40;4.20;;;;;;;2.00;62.44;100658.56;108029;1286;22043;-61
2024/01/17 01:43:57;;;;;;;6.70;3.70;;;;;;;2.00;62.54;100657.52;108124;1277;21987;-61
2024/01/17 01:46:29;;;;;;;8.60;3.80;;;;;;;2.00;62.56;100655.27;108107;1286;21987;-61
2024/01/17 01:48:55;;;;;;;7.30;3.80;;;;;;;2.01;62.70;100652.88;107391;1286;1002360;-61
2024/01/17 01:51:20;;;;;;;7.60;3.80;;;;;;;2.02;62.73;100652.05;107367;1286;1002678;-61
2024/01/17 01:53:48;;;;;;;6.40;4.00;;;;;;;2.06;62.96;100647.11;108112;1286;21985;-60
2024/01/17 01:56:20;;;;;;;6.60;3.40;;;;;;;2.09;62.84;100648.42;108120;1286;21997;-59
2024/01/17 01:58:46;;;;;;;5.90;3.20;;;;;;;2.14;62.84;100640.42;108155;1284;21994;-59
2024/01/17 02:01:11;;;;;;;7.80;3.30;;;;;;;2.18;63.14;100641.74;108213;1286;21998;-62
2024/01/17 02:03:38;;;;;;;6.70;3.70;;;;;;;2.22;63.39;100642.18;107997;1284;21993;-60
2024/01/17 02:06:04;;;;;;;5.60;3.30;;;;;;;2.26;63.49;100643.48;108116;1280;22026;-60
2024/01/17 02:08:30;;;;;;;7.80;3.60;;;;;;;2.30;63.41;100645.66;108078;1286;21987;-60
2024/01/17 02:10:56;;;;;;;7.00;3.50;;;;;;;2.34;63.46;100645.08;107884;1286;21988;-62
2024/01/17 02:13:21;;;;;;;7.20;3.80;;;;;;;2.36;63.37;100642.89;108162;1286;21994;-62
2024/01/17 02:15:47;;;;;;;6.50;3.20;;;;;;;2.41;63.70;100650.80;107534;1286;1002896;-61
2024/01/17 02:18:12;;;;;;;7.60;4.00;;;;;;;2.44;63.86;100648.61;108108;1286;21991;-59
2024/01/17 02:20:38;;;;;;;7.00;3.40;;;;;;;2.48;63.81;100649.94;107348;1286;1002889;-62
2024/01/17 02:23:27;;;;;;;7.30;3.80;;;;;;;2.53;63.69;100650.41;107396;1286;1002415;-60
2024/01/17 02:25:54;;;;;;;7.80;4.00;;;;;;;2.58;63.64;100648.78;108104;1283;21977;-61
2024/01/17 02:28:22;;;;;;;8.30;4.20;;;;;;;2.61;63.69;100650.79;108150;1281;22024;-60
2024/01/17 02:30:48;;;;;;;6.10;3.30;;;;;;;2.65;63.68;100645.34;108087;1285;21990;-62
2024/01/17 02:33:14;;;;;;;7.80;4.20;;;;;;;2.70;63.96;100643.88;107320;1286;1002428;-62
2024/01/17 02:35:39;;;;;;;7.40;3.50;;;;;;;2.73;63.84;100642.73;107314;1287;1003066;-62
2024/01/17 02:38:05;;;;;;;6.80;3.70;;;;;;;2.76;63.54;100632.92;107363;1287;1002939;-60
2024/01/17 02:40:30;;;;;;;7.00;3.90;;;;;;;2.75;63.34;100631.18;107389;1280;1002378;-61
2024/01/17 02:42:56;;;;;;;7.40;4.00;;;;;;;2.72;63.01;100633.71;108102;1273;21990;-60
2024/01/17 02:45:22;;;;;;;6.40;4.20;;;;;;;2.69;62.84;100638.13;108128;1287;21998;-62
2024/01/17 02:47:47;;;;;;;7.20;4.30;;;;;;;2.64;62.70;100640.30;108148;1287;22022;-60
2024/01/17 02:50:15;;;;;;;7.80;4.00;;;;;;;2.60;62.49;100636.91;108066;1287;21992;-60
2024/01/17 02:52:44;;;;;;;7.80;4.00;;;;;;;2.57;62.56;100638.03;107441;1287;1002545;-61
2024/01/17 02:55:11;;;;;;;7.80;3.70;;;;;;;2.53;62.53;100636.91;108157;1280;21987;-60
2024/01/17 02:57:38;;;;;;;7.50;3.60;;;;;;;2.50;62.48;100636.48;108155;1286;21986;-61
2024/01/17 03:00:05;;;;;;;9.10;4.20;;;;;;;2.49;62.70;100638.35;107485;1280;1003132;-62
2024/01/17 03:02:31;;;;;;;7.10;3.70;;;;;;;2.49;62.84;100638.34;108150;1287;23099;-60
2024/01/17 03:04:57;;;;;;;8.10;4.10;;;;;;;2.50;62.95;100632.48;108084;1286;21991;-60
2024/01/17 03:07:22;;;;;;;7.90;3.80;;;;;;;2.51;63.18;100630.09;107343;1287;1002447;-62
2024/01/17 03:09:48;;;;;;;7.40;3.60;;;;;;;2.52;63.14;100630.12;107429;1283;1002506;-59
2024/01/17 03:12:13;;;;;;;5.60;3.40;;;;;;;2.53;63.27;100633.95;108121;1282;21991;-59
2024/01/17 03:14:39;;;;;;;9.10;4.40;;;;;;;2.55;63.25;100637.97;108219;1276;23746;-61
2024/01/17 03:17:04;;;;;;;6.70;3.90;;;;;;;2.55;63.45;100640.58;108070;1283;21988;-61
2024/01/17 03:19:30;;;;;;;7.30;4.20;;;;;;;2.57;63.44;100644.77;108079;1287;21987;-59
2024/01/17 03:21:56;;;;;;;7.80;3.90;;;;;;;2.59;63.51;100643.27;108083;1277;22460;-59
2024/01/17 03:24:21;;;;;;;6.40;3.70;;;;;;;2.61;63.71;100644.19;107345;1280;1002824;-59
2024/01/17 03:26:47;;;;;;;9.20;4.90;;;;;;;2.61;63.66;100643.16;107454;1286;1002286;-61
2024/01/17 03:29:12;;;;;;;7.40;3.90;;;;;;;2.61;63.62;100644.38;108100;1276;22314;-59
2024/01/17 03:31:38;;;;;;;7.40;4.10;;;;;;;2.60;63.64;100645.05;108094;1287;21990;-61
2024/01/17 03:34:03;;;;;;;6.70;3.10;;;;;;;2.58;63.56;100641.88;108146;1287;21999;-59
2024/01/17 03:36:29;;;;;;;6.80;3.50;;;;;;;2.52;63.26;100641.91;108127;1276;22006;-60
2024/01/17 03:38:55;;;;;;;7.30;3.70;;;;;;;2.47;63.08;100640.89;108132;1283;21990;-59
2024/01/17 03:41:21;;;;;;;6.90;3.70;;;;;;;2.42;63.09;100645.11;108094;1284;21985;-59
2024/01/17 03:43:46;;;;;;;8.10;3.70;;;;;;;2.39;63.09;100646.08;108119;1280;21988;-61
2024/01/17 03:46:12;;;;;;;7.70;4.30;;;;;;;2.38;63.09;100644.34;107445;1274;1002355;-60
2024/01/17 03:48:38;;;;;;;8.40;4.20;;;;;;;2.36;63.03;100646.19;107340;1287;1002524;-61
2024/01/17 03:51:03;;;;;;;8.10;4.10;;;;;;;2.34;62.93;100645.41;108092;1287;22103;-60
2024/01/17 03:53:29;;;;;;;8.90;3.90;;;;;;;2.30;63.06;100643.77;108071;1287;21990;-61
2024/01/17 03:55:54;;;;;;;7.00;3.90;;;;;;;2.29;63.21;100644.95;108090;1286;22001;-60
2024/01/17 03:58:20;;;;;;;7.60;4.00;;;;;;;2.28;63.28;100647.87;108108;1287;23759;-62
2024/01/17 04:00:45;;;;;;;7.50;3.70;;;;;;;2.27;63.45;100650.45;108083;1287;21988;-61
2024/01/17 04:03:14;;;;;;;8.10;4.00;;;;;;;2.30;63.60;100646.55;108065;1287;21989;-62
2024/01/17 04:05:41;;;;;;;7.30;4.00;;;;;;;2.34;63.77;100649.06;108087;1282;21996;-60
2024/01/17 04:08:06;;;;;;;8.10;4.10;;;;;;;2.39;63.66;100649.37;108100;1287;21987;-61
2024/01/17 04:10:32;;;;;;;8.50;3.90;;;;;;;2.43;63.72;100644.45;108083;1286;21992;-60
2024/01/17 04:12:58;;;;;;;7.60;3.90;;;;;;;2.48;63.78;100653.05;108070;1277;21995;-60
2024/01/17 04:15:24;;;;;;;9.10;4.00;;;;;;;2.53;63.65;100656.30;108114;1277;21998;-59
2024/01/17 04:17:49;;;;;;;7.30;4.40;;;;;;;2.55;63.58;100658.07;108121;1287;23692;-61
2024/01/17 04:20:15;;;;;;;6.90;4.20;;;;;;;2.57;63.47;100658.82;108149;1287;22002;-60
2024/01/17 04:22:40;;;;;;;7.00;3.60;;;;;;;2.56;63.46;100663.13;108088;1281;23725;-60
2024/01/17 04:25:07;;;;;;;8.40;4.40;;;;;;;2.56;63.37;100665.02;108114;1286;22447;-61
2024/01/17 04:27:32;;;;;;;8.50;4.80;;;;;;;2.59;63.10;100664.23;107350;1284;1002454;-62
2024/01/17 04:29:58;;;;;;;7.10;4.00;;;;;;;2.58;63.04;100661.45;108144;1287;22100;-62
2024/01/17 04:32:24;;;;;;;7.40;4.00;;;;;;;2.53;62.92;100661.16;107333;1281;1002489;-63
2024/01/17 04:34:50;;;;;;;7.10;4.10;;;;;;;2.52;63.09;100656.10;108301;1286;21998;-60
2024/01/17 04:37:16;;;;;;;7.30;3.80;;;;;;;2.55;63.16;100655.47;108085;1286;21991;-61
2024/01/17 04:39:42;;;;;;;5.90;3.70;;;;;;;2.55;63.09;100654.43;108222;1286;21990;-60
2024/01/17 04:42:07;;;;;;;7.40;3.80;;;;;;;2.52;63.33;100652.83;108199;1286;22116;-61
2024/01/17 04:44:33;;;;;;;7.30;4.00;;;;;;;2.54;63.77;100659.09;108062;1286;22450;-62
2024/01/17 04:46:59;;;;;;;7.00;3.90;;;;;;;2.56;63.77;100661.21;108104;1281;22026;-60
2024/01/17 04:49:26;;;;;;;5.70;3.30;;;;;;;2.55;63.77;100667.26;108243;1286;21987;-61
2024/01/17 04:51:53;;;;;;;9.20;4.00;;;;;;;2.49;63.66;100672.82;108164;1286;21997;-61
2024/01/17 04:54:20;;;;;;;7.40;3.60;;;;;;;2.47;63.73;100673.45;108167;1284;22002;-60
2024/01/17 04:56:45;;;;;;;9.00;4.50;;;;;;;2.44;63.60;100674.94;108303;1277;21998;-60
2024/01/17 04:59:11;;;;;;;8.90;3.70;;;;;;;2.39;64.08;100683.49;108274;1274;22024;-60
2024/01/17 05:01:36;;;;;;;8.20;3.80;;;;;;;2.38;63.91;100687.64;107391;1277;1002631;-61
2024/01/17 05:04:02;;;;;;;8.40;4.10;;;;;;;2.37;63.84;100695.21;108036;1286;21998;-61
2024/01/17 05:06:29;;;;;;;7.70;4.50;;;;;;;2.32;63.69;100697.88;108063;1286;21991;-60
2024/01/17 05:08:56;;;;;;;8.20;3.80;;;;;;;2.30;64.00;100699.68;107341;1280;1002642;-62
2024/01/17 05:11:22;;;;;;;8.50;4.20;;;;;;;2.26;64.12;100700.80;108056;1277;21976;-63
2024/01/17 05:13:48;;;;;;;6.50;3.70;;;;;;;2.20;63.58;100706.38;108093;1286;21988;-59
2024/01/17 05:16:14;;;;;;;10.20;4.60;;;;;;;2.14;63.18;100714.01;108096;1286;21960;-60
2024/01/17 05:18:40;;;;;;;8.80;4.90;;;;;;;2.08;63.20;100714.36;108115;1286;21993;-59
2024/01/17 05:21:06;;;;;;;8.60;4.90;;;;;;;2.05;62.99;100719.46;108103;1286;22029;-60
2024/01/17 05:23:31;;;;;;;7.90;4.70;;;;;;;2.03;62.99;100723.73;108172;1286;22032;-60
2024/01/17 05:25:57;;;;;;;8.30;4.20;;;;;;;2.01;63.06;100726.79;107308;1281;1002566;-60
2024/01/17 05:28:22;;;;;;;8.20;4.60;;;;;;;1.99;63.13;100725.88;108160;1279;21975;-62
2024/01/17 05:30:48;;;;;;;7.90;4.40;;;;;;;1.97;62.98;100727.56;108316;1283;21993;-60
2024/01/17 05:33:14;;;;;;;8.20;4.30;;;;;;;1.95;62.97;100732.15;108220;1286;22028;-61
2024/01/17 05:35:40;;;;;;;7.10;4.40;;;;;;;1.94;63.12;100733.01;108146;1286;21987;-59
2024/01/17 05:38:06;;;;;;;7.10;4.50;;;;;;;1.94;63.09;100737.70;107336;1286;1004002;-62
2024/01/17 05:40:32;;;;;;;7.90;4.10;;;;;;;1.97;63.11;100738.61;108048;1286;22025;-62
2024/01/17 05:42:57;;;;;;;8.00;4.10;;;;;;;1.99;63.10;100739.38;108127;1286;22019;-62
2024/01/17 05:45:23;;;;;;;8.90;4.80;;;;;;;2.01;62.89;100737.87;108056;1280;21990;-60
2024/01/17 05:47:48;;;;;;;7.20;4.20;;;;;;;2.04;62.91;100737.08;108185;1286;21988;-62
2024/01/17 05:50:14;;;;;;;7.80;3.90;;;;;;;2.02;62.88;100735.48;108073;1286;22183;-60
2024/01/17 05:52:41;;;;;;;7.40;4.20;;;;;;;2.02;62.86;100737.21;107330;1286;1002235;-62
2024/01/17 05:55:08;;;;;;;9.30;4.30;;;;;;;2.05;62.98;100744.55;108126;1286;21997;-61
2024/01/17 05:57:34;;;;;;;14.10;4.50;;;;;;;2.05;63.05;100742.48;108163;1286;22458;-60
2024/01/17 05:59:59;;;;;;;10.10;5.40;;;;;;;2.08;63.08;100744.64;108216;1286;21991;-59
2024/01/17 06:02:25;;;;;;;10.20;5.70;;;;;;;2.10;63.11;100750.93;108089;1286;21986;-62
2024/01/17 06:04:50;;;;;;;9.10;4.70;;;;;;;2.12;62.97;100756.70;108080;1286;21997;-60
2024/01/17 06:07:16;;;;;;;7.30;4.40;;;;;;;2.12;63.20;100759.45;108085;1286;21989;-63
2024/01/17 06:09:43;;;;;;;9.10;5.00;;;;;;;2.13;63.20;100759.33;108105;1277;21998;-60
2024/01/17 06:12:10;;;;;;;8.40;4.80;;;;;;;2.16;63.11;100761.83;107331;1286;1002512;-62
2024/01/17 06:14:36;;;;;;;8.80;4.90;;;;;;;2.18;63.05;100767.60;107307;1284;1002988;-63
2024/01/17 06:17:02;;;;;;;9.10;5.20;;;;;;;2.18;62.99;100771.40;108111;1286;22753;-63
2024/01/17 06:19:27;;;;;;;8.30;4.40;;;;;;;2.17;63.30;100773.48;108094;1277;21990;-61
2024/01/17 06:21:53;;;;;;;7.30;4.50;;;;;;;2.20;63.40;100769.58;108147;1286;21989;-63
2024/01/17 06:24:18;;;;;;;7.80;4.40;;;;;;;2.26;63.74;100770.26;108087;1286;22104;-59
2024/01/17 06:26:44;;;;;;;7.40;4.40;;;;;;;2.32;63.87;100775.78;108146;1286;22022;-63
2024/01/17 06:29:10;;;;;;;7.40;4.80;;;;;;;2.38;63.89;100777.52;107414;1277;1002465;-60
2024/01/17 06:31:35;;;;;;;7.40;4.40;;;;;;;2.44;63.95;100777.66;108096;1286;21991;-63
2024/01/17 06:34:01;;;;;;;9.80;5.20;;;;;;;2.52;64.23;100777.02;108109;1277;22048;-62
2024/01/17 06:36:27;;;;;;;9.30;4.60;;;;;;;2.60;64.22;100773.77;108131;1283;21994;-60
2024/01/17 06:38:52;;;;;;;8.40;4.60;;;;;;;2.66;64.10;100779.12;108062;1277;21998;-60
2024/01/17 06:41:18;;;;;;;7.90;4.80;;;;;;;2.73;64.24;100781.73;108110;1288;21989;-63
2024/01/17 06:43:45;;;;;;;8.40;4.80;;;;;;;2.82;64.20;100787.17;108112;1288;21995;-62
2024/01/17 06:46:10;;;;;;;9.00;4.70;;;;;;;2.87;64.06;100785.05;107436;1288;1002828;-61
2024/01/17 06:48:36;;;;;;;8.30;5.00;;;;;;;2.94;64.18;100788.67;108145;1277;22003;-61
2024/01/17 06:51:03;;;;;;;8.20;4.60;;;;;;;2.99;64.20;100789.34;108165;1288;21998;-60
2024/01/17 06:53:31;;;;;;;7.30;4.50;;;;;;;3.04;64.08;100791.38;108122;1288;22007;-63
2024/01/17 06:55:56;;;;;;;10.10;5.70;;;;;;;3.09;63.95;100795.81;108165;1287;22007;-63
2024/01/17 06:58:22;;;;;;;7.50;4.60;;;;;;;3.11;63.85;100801.25;108148;1288;21990;-62
2024/01/17 07:00:48;;;;;;;10.20;4.60;;;;;;;3.12;63.83;100805.94;108178;1288;21996;-61
2024/01/17 07:03:13;;;;;;;8.30;4.90;;;;;;;3.13;63.72;100806.84;108117;1288;22043;-60
2024/01/17 07:05:40;;;;;;;9.10;5.10;;;;;;;3.13;63.85;100808.21;108116;1288;21990;-64
2024/01/17 07:08:06;;;;;;;8.40;4.90;;;;;;;3.16;64.13;100805.69;108140;1277;21986;-63
2024/01/17 07:10:32;;;;;;;8.90;5.60;;;;;;;3.20;64.15;100803.18;108085;1288;21988;-60
2024/01/17 07:12:57;;;;;;;7.70;4.20;;;;;;;3.26;64.39;100807.16;108100;1288;21979;-62
2024/01/17 07:15:23;;;;;;;7.90;5.20;;;;;;;3.33;64.50;100802.98;108126;1283;21998;-63
2024/01/17 07:17:49;;;;;;;7.50;4.30;;;;;;;3.42;64.44;100798.50;108144;1288;21999;-63
2024/01/17 07:20:16;;;;;;;10.40;4.80;;;;;;;3.50;64.09;100796.11;108097;1288;22056;-60
2024/01/17 07:22:41;;;;;;;8.10;4.50;;;;;;;3.57;64.07;100796.77;108163;1287;22000;-61
2024/01/17 07:25:10;;;;;;;8.40;4.80;;;;;;;3.63;64.13;100799.16;108118;1288;22017;-63
2024/01/17 07:27:40;;;;;;;6.90;4.80;;;;;;;3.70;64.31;100795.53;108108;1283;22002;-63
2024/01/17 07:30:06;;;;;;;10.90;6.10;;;;;;;3.80;64.10;100796.08;108196;1288;21987;-60
2024/01/17 07:32:33;;;;;;;9.90;5.60;;;;;;;3.89;64.27;100801.30;108165;1283;21986;-61
2024/01/17 07:34:59;;;;;;;9.70;5.50;;;;;;;3.98;64.45;100807.75;108135;1277;21995;-65
2024/01/17 07:37:24;;;;;;;8.50;5.40;;;;;;;4.08;64.75;100806.21;108162;1288;22024;-65
2024/01/17 07:39:50;;;;;;;14.10;7.80;;;;;;;4.18;64.84;100805.74;108135;1283;22123;-62
2024/01/17 07:42:18;;;;;;;33.20;17.10;;;;;;;4.29;64.85;100807.02;108124;1288;22099;-64
2024/01/17 07:44:47;;;;;;;27.40;15.70;;;;;;;4.39;64.96;100805.64;108019;1277;164064;-62
2024/01/17 07:47:13;;;;;;;42.80;25.60;;;;;;;4.49;64.68;100807.05;108072;1288;22028;-62
2024/01/17 07:49:39;;;;;;;43.80;25.80;;;;;;;4.56;64.31;100806.50;108113;1286;21995;-62
2024/01/17 07:52:05;;;;;;;23.60;15.60;;;;;;;4.64;64.42;100806.10;108139;1288;21999;-64
2024/01/17 07:54:32;;;;;;;16.40;10.80;;;;;;;4.70;64.46;100806.91;108132;1277;22003;-63
2024/01/17 07:57:00;;;;;;;13.10;7.60;;;;;;;4.76;64.42;100807.23;108093;1287;21993;-63
2024/01/17 07:59:27;;;;;;;11.40;7.00;;;;;;;4.85;64.68;100811.20;108246;1288;22030;-65
2024/01/17 08:01:54;;;;;;;10.90;6.10;;;;;;;4.96;64.48;100811.91;108094;1288;23059;-64
2024/01/17 08:04:20;;;;;;;10.80;5.80;;;;;;;5.06;64.57;100813.66;108121;1288;22029;-63
2024/01/17 08:06:46;;;;;;;11.20;5.90;;;;;;;5.17;64.59;100811.58;108133;1277;21999;-65
2024/01/17 08:09:20;;;;;;;14.60;9.30;;;;;;;5.28;64.76;100812.11;108108;1288;21991;-62
2024/01/17 08:11:50;;;;;;;32.90;19.30;;;;;;;5.39;65.10;100809.66;108104;1288;22031;-62
2024/01/17 08:14:15;;;;;;;29.10;17.50;;;;;;;5.50;65.05;100809.67;108133;1288;21990;-63
2024/01/17 08:16:41;;;;;;;38.00;24.20;;;;;;;5.59;64.89;100806.66;108169;1288;22455;-65
2024/01/17 08:19:07;;;;;;;18.50;12.90;;;;;;;5.70;64.89;100800.92;108123;1288;21986;-63
2024/01/17 08:21:32;;;;;;;13.60;9.10;;;;;;;5.80;64.94;100804.70;108173;1288;22044;-62
2024/01/17 08:24:01;;;;;;;12.90;8.20;;;;;;;5.87;64.39;100801.84;108105;1288;21997;-63
2024/01/17 08:26:26;;;;;;;11.90;6.70;;;;;;;5.96;64.29;100802.15;108143;1288;22002;-62
2024/01/17 08:28:53;;;;;;;9.20;6.20;;;;;;;6.07;64.14;100802.84;108131;1288;22000;-63
2024/01/17 08:31:18;;;;;;;15.50;9.50;;;;;;;6.20;63.89;100802.13;107454;1277;1002376;-63
2024/01/17 08:33:44;;;;;;;10.50;6.10;;;;;;;6.29;63.67;100801.54;107426;1288;1006381;-63
2024/01/17 08:36:10;;;;;;;9.60;6.30;;;;;;;6.39;63.67;100801.14;108161;1288;21998;-64
2024/01/17 08:38:35;;;;;;;9.00;6.10;;;;;;;6.51;63.71;100804.41;108170;1288;22010;-64
2024/01/17 08:41:01;;;;;;;10.70;6.40;;;;;;;6.61;63.74;100804.16;108185;1288;21995;-62
2024/01/17 08:43:26;;;;;;;11.40;7.40;;;;;;;6.69;63.96;100801.29;108128;1288;22030;-62
2024/01/17 08:45:52;;;;;;;21.90;14.10;;;;;;;6.81;63.82;100803.84;107366;1288;1002960;-62
2024/01/17 08:48:17;;;;;;;21.90;13.70;;;;;;;6.87;63.09;100802.34;108120;1288;21992;-63
2024/01/17 08:50:43;;;;;;;39.00;22.30;;;;;;;6.91;62.56;100800.11;108156;1280;21994;-62
2024/01/17 08:53:09;;;;;;;20.90;13.70;;;;;;;6.91;62.38;100799.58;108108;1288;22119;-62
2024/01/17 08:55:34;;;;;;;10.70;8.00;;;;;;;6.96;62.45;100801.73;108164;1288;22004;-62
2024/01/17 08:58:00;;;;;;;15.20;8.80;;;;;;;7.05;62.36;100799.55;107433;1288;1002939;-62
2024/01/17 09:00:26;;;;;;;14.10;9.80;;;;;;;7.08;61.74;100794.85;108204;1280;21998;-63
2024/01/17 09:02:52;;;;;;;15.00;9.80;;;;;;;7.13;61.65;100793.15;108110;1288;21997;-62
2024/01/17 09:05:18;;;;;;;18.20;11.10;;;;;;;7.21;61.06;100796.02;108115;1283;21992;-63
2024/01/17 09:07:45;;;;;;;11.30;7.80;;;;;;;7.24;60.94;100792.37;108110;1287;21986;-62
2024/01/17 09:10:13;;;;;;;19.00;11.50;;;;;;;7.28;61.27;100789.09;108134;1288;22029;-62
2024/01/17 09:12:38;;;;;;;12.10;7.60;;;;;;;7.37;61.37;100787.93;108130;1288;21992;-62
2024/01/17 09:15:05;;;;;;;9.90;7.00;;;;;;;7.46;61.77;100779.98;108099;1288;22040;-63
2024/01/17 09:17:32;;;;;;;8.20;4.60;;;;;;;7.59;61.38;100774.81;108184;1288;21997;-63
2024/01/17 09:19:58;;;;;;;7.40;4.70;;;;;;;7.71;61.18;100768.95;108093;1288;22000;-63
2024/01/17 09:22:23;;;;;;;7.50;5.00;;;;;;;7.83;60.57;100769.36;108121;1288;22028;-63
2024/01/17 09:24:49;;;;;;;10.00;5.70;;;;;;;7.92;60.49;100769.41;108119;1288;21992;-63
2024/01/17 09:27:14;;;;;;;7.40;4.50;;;;;;;8.00;59.50;100767.86;108128;1288;21990;-63
2024/01/17 09:29:40;;;;;;;8.70;5.00;;;;;;;8.04;59.59;100764.04;108120;1283;21992;-62
2024/01/17 09:32:06;;;;;;;7.00;4.80;;;;;;;8.12;59.72;100758.48;108152;1286;21989;-62
2024/01/17 09:34:36;;;;;;;9.70;6.00;;;;;;;8.22;59.89;100751.69;108104;1278;21987;-63
2024/01/17 09:37:02;;;;;;;;;;;;;;;8.30;60.09;100745.08;108114;1286;21985;-63
2024/01/17 09:39:29;;;;;;;8.10;5.50;;;;;;;8.38;59.81;100740.02;107382;1286;1002353;-63
2024/01/17 09:41:54;;;;;;;8.20;5.20;;;;;;;8.43;58.94;100738.45;108281;1274;22019;-64
2024/01/17 09:44:20;;;;;;;7.30;4.80;;;;;;;8.48;58.79;100733.06;107907;1286;22005;-63
2024/01/17 09:46:46;;;;;;;8.40;4.80;;;;;;;8.55;58.49;100727.33;108111;1281;21999;-64
2024/01/17 09:49:11;;;;;;;8.70;4.30;;;;;;;8.59;58.23;100724.89;108013;1286;21987;-63
2024/01/17 09:51:37;;;;;;;7.40;5.00;;;;;;;8.64;58.02;100721.23;108330;1286;21985;-62
2024/01/17 09:54:04;;;;;;;9.80;5.50;;;;;;;8.74;58.13;100717.73;107927;1286;22032;-63
2024/01/17 09:56:31;;;;;;;9.10;5.40;;;;;;;8.83;57.89;100713.53;108168;1284;22010;-63
2024/01/17 09:58:57;;;;;;;9.40;5.00;;;;;;;8.87;57.45;100713.35;107436;1286;1003182;-63
2024/01/17 10:01:22;;;;;;;7.80;5.20;;;;;;;8.94;57.06;100709.86;107952;1286;24308;-63
2024/01/17 10:03:48;;;;;;;8.70;5.00;;;;;;;9.00;56.91;100708.64;107939;1284;21986;-63
2024/01/17 10:06:15;;;;;;;7.30;5.20;;;;;;;9.04;56.70;100713.19;108141;1286;21988;-63
2024/01/17 10:08:41;;;;;;;7.70;4.60;;;;;;;9.11;57.27;100719.31;108154;1286;21992;-63
2024/01/17 10:11:06;;;;;;;8.50;4.90;;;;;;;9.21;56.97;100719.30;108135;1286;21986;-63
2024/01/17 10:13:32;;;;;;;9.20;4.50;;;;;;;9.27;56.72;100714.02;107889;1286;21990;-63
2024/01/17 10:15:59;;;;;;;7.30;4.90;;;;;;;9.30;56.55;100715.95;108124;1286;21986;-62
2024/01/17 10:18:24;;;;;;;8.60;4.60;;;;;;;9.33;56.98;100711.91;108184;1286;21985;-63
2024/01/17 10:20:50;;;;;;;6.80;4.20;;;;;;;9.45;57.35;100709.98;108159;1286;21992;-63
2024/01/17 10:23:16;;;;;;;7.60;4.40;;;;;;;9.58;56.87;100709.59;108140;1286;21990;-63
2024/01/17 10:25:42;;;;;;;7.60;4.60;;;;;;;9.70;56.58;100704.30;107957;1286;22455;-63
2024/01/17 10:28:07;;;;;;;7.30;4.00;;;;;;;9.79;56.02;100703.56;108140;1283;21984;-63
2024/01/17 10:30:36;;;;;;;6.80;4.30;;;;;;;9.90;57.02;100701.59;108262;1286;22030;-62
2024/01/17 10:33:02;;;;;;;8.10;5.10;;;;;;;10.01;56.86;100698.20;107416;1286;1003009;-61
2024/01/17 10:35:29;;;;;;;7.60;4.40;;;;;;;10.13;56.77;100696.74;108114;1286;22135;-60
2024/01/17 10:37:54;;;;;;;6.80;4.10;;;;;;;10.26;57.63;100694.73;108198;1286;21992;-62
2024/01/17 10:40:21;;;;;;;7.40;4.40;;;;;;;10.41;57.51;100695.38;108137;1286;21995;-62
2024/01/17 10:42:46;;;;;;;7.90;4.90;;;;;;;10.55;57.42;100694.24;108087;1286;21999;-62
2024/01/17 10:45:20;;;;;;;10.00;6.30;;;;;;;10.66;57.53;100690.81;108082;1286;22160;-61
2024/01/17 10:47:46;;;;;;;10.90;5.40;;;;;;;10.83;58.03;100686.30;108185;1286;22000;-61
2024/01/17 10:50:12;;;;;;;8.50;5.00;;;;;;;10.99;57.77;100681.95;108115;1284;21987;-61
2024/01/17 10:52:40;;;;;;;9.10;5.10;;;;;;;11.10;58.52;100682.36;108137;1286;21954;-61
2024/01/17 10:55:08;;;;;;;9.30;5.30;;;;;;;11.25;57.81;100681.52;108128;1286;21992;-61
2024/01/17 10:57:34;;;;;;;8.00;4.90;;;;;;;11.34;58.81;100680.73;108149;1273;22004;-61
2024/01/17 11:00:03;;;;;;;8.90;4.50;;;;;;;11.52;58.46;100679.99;108142;1286;22001;-62
2024/01/17 11:02:29;;;;;;;9.00;5.50;;;;;;;11.64;58.51;100676.52;107357;1277;1002593;-61
2024/01/17 11:04:57;;;;;;;9.10;4.60;;;;;;;11.79;59.10;100672.30;108112;1286;21992;-61
2024/01/17 11:07:23;;;;;;;7.20;4.40;;;;;;;11.94;59.37;100671.41;108145;1286;21998;-62
2024/01/17 11:09:49;;;;;;;8.00;4.30;;;;;;;12.13;59.65;100667.48;108114;1286;21987;-61
2024/01/17 11:12:14;;;;;;;8.00;4.60;;;;;;;12.34;59.38;100667.00;108200;1286;21987;-63
2024/01/17 11:14:42;;;;;;;6.90;4.70;;;;;;;12.51;59.75;100662.34;108147;1286;22013;-62